Time;durP1;ratioP1;P1;durP2;ratioP2;P2;SDS_P1;SDS_P2;PMS_P1;PMS_P2;Temp;Humidity;BMP_temperature;BMP_pressure;BME280_temperature;BME280_humidity;BME280_pressure;Samples;Min_cycle;Max_cycle;Signal;HPM_P1;HPM_P2
2023/03/31 00:01:05;;;;;;;51.30;7.70;;;9.50;99.90;;;;;;5093901;28;20048;-83
2023/03/31 00:04:00;;;;;;;40.88;7.47;;;9.50;99.90;;;;;;5075988;28;20127;-85
2023/03/31 00:06:47;;;;;;;41.25;8.18;;;9.50;99.90;;;;;;5096989;28;20086;-81
2023/03/31 00:09:34;;;;;;;42.90;7.47;;;9.40;99.90;;;;;;5090017;28;20102;-83
2023/03/31 00:12:21;;;;;;;46.33;7.55;;;9.40;99.90;;;;;;5089290;28;20095;-82
2023/03/31 00:15:07;;;;;;;40.22;6.97;;;9.40;99.90;;;;;;5088425;28;20059;-82
2023/03/31 00:17:53;;;;;;;46.30;8.05;;;9.40;99.90;;;;;;5089042;28;20040;-84
2023/03/31 00:20:41;;;;;;;48.85;8.48;;;9.50;99.90;;;;;;5079000;28;20048;-82
2023/03/31 00:23:27;;;;;;;43.03;9.20;;;9.50;99.90;;;;;;5092134;28;20055;-83
2023/03/31 00:26:14;;;;;;;53.22;8.65;;;9.50;99.90;;;;;;5089761;28;20052;-83
2023/03/31 00:29:01;;;;;;;58.22;9.30;;;9.50;99.90;;;;;;5076539;28;20044;-82
2023/03/31 00:31:47;;;;;;;40.65;7.95;;;9.60;99.90;;;;;;5089959;28;20143;-81
2023/03/31 00:34:33;;;;;;;55.05;8.82;;;9.50;99.90;;;;;;5092790;28;20066;-84
2023/03/31 00:37:19;;;;;;;50.95;8.25;;;9.50;99.90;;;;;;5091415;28;20055;-83
2023/03/31 00:40:08;;;;;;;41.65;7.80;;;9.40;99.90;;;;;;5092768;28;20044;-83
2023/03/31 00:42:54;;;;;;;39.30;7.75;;;9.40;99.90;;;;;;5095549;28;20177;-84
2023/03/31 00:45:40;;;;;;;61.00;8.45;;;9.40;99.90;;;;;;5094246;28;20040;-84
2023/03/31 00:48:26;;;;;;;48.60;7.53;;;9.40;99.90;;;;;;5106296;28;20048;-84
2023/03/31 00:51:13;;;;;;;46.85;8.38;;;9.40;99.90;;;;;;5092438;28;20128;-83
2023/03/31 00:54:04;;;;;;;40.55;7.28;;;9.40;99.90;;;;;;5091957;28;20079;-85
2023/03/31 00:56:54;;;;;;;34.15;6.97;;;9.30;99.90;;;;;;5092281;28;20114;-84
2023/03/31 00:59:48;;;;;;;41.80;9.32;;;9.30;99.90;;;;;;5094238;28;20086;-82
2023/03/31 01:02:40;;;;;;;46.60;8.30;;;9.30;99.90;;;;;;5092189;28;20051;-83
2023/03/31 01:05:55;;;;;;;50.65;7.60;;;9.30;99.90;;;;;;5094882;28;20135;-84
2023/03/31 01:08:43;;;;;;;46.13;7.93;;;9.30;99.90;;;;;;5094795;28;20060;-82
2023/03/31 01:11:30;;;;;;;42.45;6.85;;;9.20;99.90;;;;;;5092500;28;20055;-84
2023/03/31 01:14:16;;;;;;;43.67;6.32;;;9.20;99.90;;;;;;5081364;28;20117;-83
2023/03/31 01:17:04;;;;;;;42.05;6.57;;;9.20;99.90;;;;;;5095569;28;20081;-83
2023/03/31 01:20:06;;;;;;;51.65;7.43;;;9.20;99.90;;;;;;5112538;28;20055;-83
2023/03/31 01:23:26;;;;;;;44.67;7.40;;;9.20;99.90;;;;;;5118309;28;20058;-82
2023/03/31 01:26:37;;;;;;;47.88;6.93;;;9.20;99.90;;;;;;5110752;28;20510;-85
2023/03/31 01:29:54;;;;;;;39.60;6.82;;;9.10;99.90;;;;;;5096717;28;20138;-84
2023/03/31 01:32:52;;;;;;;43.72;8.18;;;9.10;99.90;;;;;;5097464;28;20052;-84
2023/03/31 01:36:03;;;;;;;38.45;6.78;;;9.10;99.90;;;;;;5098935;28;20048;-83
2023/03/31 01:39:27;;;;;;;41.70;6.30;;;9.10;99.90;;;;;;5100540;28;20079;-83
2023/03/31 01:42:15;;;;;;;35.85;8.52;;;9.10;99.90;;;;;;5096644;28;20524;-83
2023/03/31 01:45:26;;;;;;;40.92;9.38;;;9.10;99.90;;;;;;5092457;28;20104;-82
2023/03/31 01:48:22;;;;;;;43.90;7.60;;;9.10;99.90;;;;;;5112968;28;20070;-83
2023/03/31 01:51:30;;;;;;;40.38;6.82;;;9.10;99.90;;;;;;5113185;28;20052;-82
2023/03/31 01:54:38;;;;;;;32.25;7.18;;;9.10;99.90;;;;;;5098800;28;20047;-84
2023/03/31 01:57:31;;;;;;;41.75;6.53;;;9.20;99.90;;;;;;5104560;28;20047;-82
2023/03/31 02:00:24;;;;;;;42.50;6.63;;;9.20;99.90;;;;;;5111833;28;20051;-82
2023/03/31 02:03:28;;;;;;;38.30;8.30;;;9.20;99.90;;;;;;5111801;28;20055;-83
2023/03/31 02:06:24;;;;;;;41.58;7.38;;;9.20;99.90;;;;;;5070649;28;20059;-83
2023/03/31 02:09:15;;;;;;;47.05;7.93;;;9.30;99.90;;;;;;5071663;28;20115;-82
2023/03/31 02:12:05;;;;;;;39.70;6.32;;;9.30;99.90;;;;;;5070431;28;20055;-83
2023/03/31 02:14:55;;;;;;;30.48;5.97;;;9.30;99.90;;;;;;5070962;28;20088;-82
2023/03/31 02:17:44;;;;;;;33.05;5.63;;;9.20;99.90;;;;;;5055605;28;20103;-82
2023/03/31 02:20:32;;;;;;;34.50;6.43;;;9.20;99.90;;;;;;5072664;28;20183;-81
2023/03/31 02:23:21;;;;;;;34.15;7.65;;;9.20;99.90;;;;;;5082901;28;20040;-85
2023/03/31 02:26:23;;;;;;;33.15;5.70;;;9.20;99.90;;;;;;5076464;28;20063;-84
2023/03/31 02:29:10;;;;;;;41.58;6.72;;;9.20;99.90;;;;;;5071108;28;20404;-85
2023/03/31 02:32:06;;;;;;;43.83;7.95;;;9.10;99.90;;;;;;5070257;28;20447;-86
2023/03/31 02:34:53;;;;;;;34.05;6.57;;;9.20;99.90;;;;;;5055834;28;20090;-83
2023/03/31 02:37:41;;;;;;;42.38;6.47;;;9.20;99.90;;;;;;5074989;28;20055;-85
2023/03/31 02:40:29;;;;;;;26.88;5.38;;;9.20;99.90;;;;;;5055609;28;20055;-84
2023/03/31 02:43:16;;;;;;;32.53;6.45;;;9.20;99.90;;;;;;5070511;28;20049;-83
2023/03/31 02:46:02;;;;;;;32.13;6.97;;;9.20;99.90;;;;;;5072356;28;20140;-82
2023/03/31 02:48:51;;;;;;;35.60;5.45;;;9.20;99.90;;;;;;5060091;28;20044;-84
2023/03/31 02:51:59;;;;;;;47.33;7.07;;;9.20;99.90;;;;;;5077480;28;20056;-82
2023/03/31 02:55:00;;;;;;;32.70;6.22;;;9.20;99.90;;;;;;5073925;28;20064;-86
2023/03/31 02:57:52;;;;;;;29.25;6.10;;;9.10;99.90;;;;;;5069806;28;20049;-81
2023/03/31 03:00:58;;;;;;;30.55;6.55;;;9.20;99.90;;;;;;5067642;28;20803;-83
2023/03/31 03:03:56;;;;;;;;;;;9.20;99.90;;;;;;5058191;28;20051;-87
2023/03/31 03:07:08;;;;;;;35.90;6.75;;;9.20;99.90;;;;;;5091806;28;19927;-83
2023/03/31 03:10:16;;;;;;;29.45;4.85;;;9.20;99.90;;;;;;5094281;28;20048;-86
2023/03/31 03:13:27;;;;;;;22.35;5.13;;;9.20;99.90;;;;;;5089381;28;20518;-83
2023/03/31 03:16:32;;;;;;;29.42;6.43;;;9.20;99.90;;;;;;5089217;28;20140;-86
2023/03/31 03:19:20;;;;;;;37.37;6.70;;;9.30;99.90;;;;;;5093901;28;20412;-83
2023/03/31 03:22:07;;;;;;;28.65;5.03;;;9.20;99.90;;;;;;5088530;28;20383;-83
2023/03/31 03:24:53;;;;;;;39.50;6.30;;;9.20;99.90;;;;;;5091109;28;20052;-84
2023/03/31 03:27:41;;;;;;;34.03;5.85;;;9.10;99.90;;;;;;5090315;28;20062;-86
2023/03/31 03:30:27;;;;;;;34.22;6.13;;;9.10;99.90;;;;;;5089842;28;20055;-86
2023/03/31 03:33:15;;;;;;;25.80;5.38;;;9.10;99.90;;;;;;5099316;28;20453;-83
2023/03/31 03:36:02;;;;;;;38.05;7.28;;;9.10;99.90;;;;;;5088458;28;20178;-86
2023/03/31 03:38:48;;;;;;;29.55;5.18;;;9.10;99.90;;;;;;5091471;28;20167;-84
2023/03/31 03:41:34;;;;;;;32.08;5.18;;;9.10;99.90;;;;;;5089744;28;20055;-85
2023/03/31 03:44:20;;;;;;;36.10;5.65;;;9.10;99.90;;;;;;5088180;28;20056;-86
2023/03/31 03:47:06;;;;;;;31.42;5.10;;;9.10;99.90;;;;;;5095665;28;20052;-85
2023/03/31 03:49:52;;;;;;;34.50;8.45;;;9.10;99.90;;;;;;5089305;28;20044;-85
2023/03/31 03:52:39;;;;;;;37.00;7.43;;;9.10;99.90;;;;;;5090486;28;20098;-81
2023/03/31 03:55:25;;;;;;;26.00;4.47;;;9.10;99.90;;;;;;5093507;28;20083;-82
2023/03/31 03:58:11;;;;;;;22.92;5.10;;;9.10;99.90;;;;;;5089528;28;20058;-82
2023/03/31 04:00:57;;;;;;;29.63;5.60;;;9.10;99.90;;;;;;5090823;28;20096;-85
2023/03/31 04:03:44;;;;;;;25.48;5.70;;;9.10;99.90;;;;;;5096617;28;20143;-85
2023/03/31 04:06:30;;;;;;;20.35;5.03;;;9.20;99.90;;;;;;5089599;28;20044;-86
2023/03/31 04:09:16;;;;;;;31.95;5.15;;;9.20;99.90;;;;;;5089632;28;20050;-81
2023/03/31 04:12:02;;;;;;;27.85;4.10;;;9.20;99.90;;;;;;5095175;28;20048;-81
2023/03/31 04:14:49;;;;;;;21.70;5.03;;;9.20;99.90;;;;;;5096552;28;20094;-83
2023/03/31 04:17:36;;;;;;;35.65;7.68;;;9.30;99.90;;;;;;5099416;28;20055;-85
2023/03/31 04:20:26;;;;;;;24.35;4.65;;;9.30;99.90;;;;;;5096625;28;20139;-83
2023/03/31 04:23:13;;;;;;;19.23;4.13;;;9.30;99.90;;;;;;5098483;28;20056;-83
2023/03/31 04:26:01;;;;;;;26.20;5.43;;;9.30;99.90;;;;;;5097049;28;20143;-82
2023/03/31 04:28:49;;;;;;;19.08;4.95;;;9.30;99.90;;;;;;5096515;28;20097;-81
2023/03/31 04:31:37;;;;;;;20.73;5.30;;;9.30;99.90;;;;;;5097668;28;20507;-86
2023/03/31 04:34:25;;;;;;;27.42;5.18;;;9.30;99.90;;;;;;5094642;28;20189;-85
2023/03/31 04:37:12;;;;;;;27.42;5.68;;;9.30;99.90;;;;;;5079161;28;20048;-83
2023/03/31 04:40:02;;;;;;;25.40;5.45;;;9.30;99.90;;;;;;5094526;28;20484;-83
2023/03/31 04:42:48;;;;;;;23.35;5.38;;;9.30;99.90;;;;;;5072217;28;20047;-82
2023/03/31 04:45:34;;;;;;;24.55;6.05;;;9.40;99.90;;;;;;5097183;28;20050;-85
2023/03/31 04:48:20;;;;;;;25.88;5.53;;;9.30;99.90;;;;;;5101067;28;20157;-85
2023/03/31 04:51:08;;;;;;;22.25;6.32;;;9.30;99.90;;;;;;5095107;28;20167;-84
2023/03/31 04:53:54;;;;;;;16.77;4.95;;;9.30;99.90;;;;;;5096721;28;20131;-81
2023/03/31 04:56:40;;;;;;;25.27;5.78;;;9.30;99.90;;;;;;5097237;28;20052;-83
2023/03/31 04:59:27;;;;;;;20.75;6.70;;;9.30;99.90;;;;;;5079582;28;20052;-82
2023/03/31 05:02:14;;;;;;;20.42;6.32;;;9.30;99.90;;;;;;5078259;28;20511;-82
2023/03/31 05:05:00;;;;;;;23.15;6.93;;;9.30;99.90;;;;;;5077304;28;20048;-82
2023/03/31 05:07:46;;;;;;;27.92;7.63;;;9.30;99.90;;;;;;5099080;28;20048;-83
2023/03/31 05:10:32;;;;;;;22.70;7.25;;;9.30;99.90;;;;;;5103901;28;20059;-83
2023/03/31 05:13:19;;;;;;;25.65;7.15;;;9.30;99.90;;;;;;5081329;28;20051;-81
2023/03/31 05:16:11;;;;;;;27.25;7.53;;;9.30;99.90;;;;;;5077924;28;20083;-81
2023/03/31 05:18:57;;;;;;;25.00;8.18;;;9.30;99.90;;;;;;5095840;28;20044;-86
2023/03/31 05:21:43;;;;;;;27.23;7.57;;;9.20;99.90;;;;;;5095886;28;20054;-85
2023/03/31 05:24:30;;;;;;;22.55;8.52;;;9.30;99.90;;;;;;5092356;28;20067;-85
2023/03/31 05:27:16;;;;;;;23.90;9.18;;;9.30;99.90;;;;;;5096142;28;20380;-86
2023/03/31 05:30:06;;;;;;;29.00;8.38;;;9.30;99.90;;;;;;5093170;28;20048;-84
2023/03/31 05:32:53;;;;;;;25.80;8.88;;;9.40;99.90;;;;;;5084010;28;20155;-83
2023/03/31 05:35:39;;;;;;;24.30;7.85;;;9.40;99.90;;;;;;5091388;28;20499;-82
2023/03/31 05:38:30;;;;;;;23.40;8.68;;;9.40;99.90;;;;;;5091147;28;20563;-82
2023/03/31 05:41:16;;;;;;;24.80;8.05;;;9.50;99.90;;;;;;5094619;28;20048;-86
2023/03/31 05:44:02;;;;;;;26.20;8.25;;;9.50;99.90;;;;;;5093094;28;20088;-83
2023/03/31 05:46:48;;;;;;;29.80;9.43;;;9.50;99.90;;;;;;5092165;28;20044;-84
2023/03/31 05:49:34;;;;;;;25.77;8.40;;;9.50;99.90;;;;;;5091248;28;20487;-86
2023/03/31 05:52:21;;;;;;;18.55;8.90;;;9.50;99.90;;;;;;5090775;28;20055;-86
2023/03/31 05:55:07;;;;;;;26.08;8.25;;;9.50;99.90;;;;;;5092324;28;20131;-81
2023/03/31 05:57:54;;;;;;;25.95;9.13;;;9.50;99.90;;;;;;5091132;28;20060;-81
2023/03/31 06:00:40;;;;;;;24.95;9.07;;;9.60;99.90;;;;;;5097451;28;20048;-81
2023/03/31 06:03:26;;;;;;;23.73;8.10;;;9.60;99.90;;;;;;5094686;28;20055;-82
2023/03/31 06:06:13;;;;;;;21.05;8.07;;;9.60;99.90;;;;;;5072110;28;20052;-84
2023/03/31 06:08:59;;;;;;;20.70;8.38;;;9.50;99.90;;;;;;5071415;28;20400;-85
2023/03/31 06:11:46;;;;;;;21.85;9.02;;;9.60;99.90;;;;;;5070307;28;20080;-82
2023/03/31 06:14:32;;;;;;;18.23;9.05;;;9.60;99.90;;;;;;5078130;28;20071;-81
2023/03/31 06:17:18;;;;;;;24.55;9.60;;;9.50;99.90;;;;;;5073540;28;20048;-82
2023/03/31 06:20:05;;;;;;;24.67;8.57;;;9.60;99.90;;;;;;5071562;28;20056;-82
2023/03/31 06:22:51;;;;;;;28.20;9.48;;;9.60;99.90;;;;;;5071003;28;20044;-84
2023/03/31 06:25:38;;;;;;;28.98;9.50;;;9.60;99.90;;;;;;5070821;28;20044;-84
2023/03/31 06:28:24;;;;;;;22.20;8.85;;;9.70;99.90;;;;;;5080022;28;20522;-85
2023/03/31 06:31:13;;;;;;;21.75;8.60;;;9.70;99.90;;;;;;5071552;28;20063;-84
2023/03/31 06:33:59;;;;;;;24.42;8.23;;;9.70;99.90;;;;;;5070624;28;20542;-83
2023/03/31 06:36:45;;;;;;;26.20;9.00;;;9.70;99.90;;;;;;5070217;28;20051;-83
2023/03/31 06:39:31;;;;;;;26.35;9.02;;;9.70;99.90;;;;;;5072580;28;20048;-81
2023/03/31 06:42:17;;;;;;;24.00;9.32;;;9.80;99.90;;;;;;5071823;28;20052;-83
2023/03/31 06:45:04;;;;;;;19.80;7.65;;;9.70;99.90;;;;;;5069956;28;20052;-82
2023/03/31 06:47:50;;;;;;;18.23;8.95;;;9.80;99.90;;;;;;5071657;28;20102;-83
2023/03/31 06:50:38;;;;;;;19.27;7.43;;;9.80;99.90;;;;;;5071000;28;20048;-82
2023/03/31 06:53:24;;;;;;;26.13;7.75;;;9.90;99.90;;;;;;5071636;28;20050;-84
2023/03/31 06:56:10;;;;;;;19.88;7.10;;;9.90;99.90;;;;;;5072417;28;20127;-82
2023/03/31 06:58:56;;;;;;;19.15;6.88;;;9.90;99.90;;;;;;5068284;28;20139;-82
2023/03/31 07:01:44;;;;;;;17.17;6.90;;;10.00;99.90;;;;;;5069558;28;20516;-85
2023/03/31 07:04:30;;;;;;;17.95;6.63;;;10.00;99.90;;;;;;5085868;28;20117;-85
2023/03/31 07:07:17;;;;;;;17.88;5.57;;;10.00;99.90;;;;;;5092497;28;20498;-82
2023/03/31 07:10:04;;;;;;;15.10;5.70;;;10.00;99.90;;;;;;5111692;28;20047;-83
2023/03/31 07:12:50;;;;;;;14.88;5.15;;;10.00;99.90;;;;;;5109270;28;20108;-82
2023/03/31 07:15:36;;;;;;;15.82;5.72;;;10.00;99.90;;;;;;5109736;28;20054;-81
2023/03/31 07:18:30;;;;;;;13.00;5.32;;;10.00;99.90;;;;;;5109369;28;20564;-82
2023/03/31 07:21:17;;;;;;;11.10;4.95;;;10.00;99.90;;;;;;5109234;28;20047;-81
2023/03/31 07:24:03;;;;;;;15.45;5.72;;;10.00;99.90;;;;;;5114513;28;20073;-85
2023/03/31 07:26:49;;;;;;;17.30;5.78;;;10.10;99.90;;;;;;5115170;28;20047;-82
2023/03/31 07:29:38;;;;;;;15.77;4.75;;;10.00;99.90;;;;;;5109454;28;20048;-82
2023/03/31 07:32:25;;;;;;;10.57;5.07;;;10.00;99.90;;;;;;5109174;28;20130;-84
2023/03/31 07:35:11;;;;;;;13.38;4.60;;;10.00;99.90;;;;;;5108719;28;20043;-82
2023/03/31 07:37:57;;;;;;;13.93;4.30;;;10.00;99.90;;;;;;5109920;28;20043;-85
2023/03/31 07:40:44;;;;;;;10.32;4.57;;;10.00;99.90;;;;;;5111466;28;20113;-85
2023/03/31 07:43:31;;;;;;;14.52;5.70;;;10.00;99.90;;;;;;5109081;28;20070;-81
2023/03/31 07:46:21;;;;;;;11.80;4.60;;;10.00;99.90;;;;;;5093683;28;20377;-80
2023/03/31 07:49:08;;;;;;;12.65;5.13;;;10.00;99.90;;;;;;5094144;28;20052;-82
2023/03/31 07:51:54;;;;;;;14.27;4.13;;;10.00;99.90;;;;;;5109857;28;20071;-85
2023/03/31 07:54:41;;;;;;;9.00;3.63;;;9.90;99.90;;;;;;5099225;28;20077;-84
2023/03/31 07:57:27;;;;;;;10.05;3.63;;;10.00;99.90;;;;;;5110183;28;20083;-84
2023/03/31 08:00:15;;;;;;;8.13;3.70;;;10.00;99.90;;;;;;5110017;28;20399;-87
2023/03/31 08:03:01;;;;;;;17.02;4.03;;;10.00;99.90;;;;;;5109496;28;20457;-82
2023/03/31 08:05:51;;;;;;;7.57;3.10;;;10.00;99.90;;;;;;5108906;28;20058;-81
2023/03/31 08:08:41;;;;;;;14.48;3.63;;;10.10;99.90;;;;;;5111187;28;20047;-85
2023/03/31 08:11:28;;;;;;;9.18;3.92;;;10.10;99.90;;;;;;5092152;28;20058;-82
2023/03/31 08:14:14;;;;;;;11.23;3.50;;;10.10;99.90;;;;;;5090997;28;20054;-82
2023/03/31 08:17:00;;;;;;;11.10;3.38;;;10.10;99.90;;;;;;5108877;28;20044;-81
2023/03/31 08:19:46;;;;;;;9.52;4.13;;;10.10;99.90;;;;;;5077228;28;20159;-84
2023/03/31 08:22:32;;;;;;;10.60;4.50;;;10.20;99.90;;;;;;5108933;28;20052;-85
2023/03/31 08:25:20;;;;;;;10.57;3.00;;;10.20;99.90;;;;;;5112700;28;20054;-84
2023/03/31 08:28:09;;;;;;;10.82;3.55;;;10.20;99.90;;;;;;5090962;28;20051;-82
2023/03/31 08:31:01;;;;;;;5.90;2.35;;;10.30;99.90;;;;;;5108244;28;20526;-85
2023/03/31 08:33:47;;;;;;;6.82;2.20;;;10.30;99.90;;;;;;5108034;28;20051;-83
2023/03/31 08:36:33;;;;;;;6.38;2.65;;;10.30;99.90;;;;;;5110595;28;20062;-81
2023/03/31 08:39:19;;;;;;;7.70;3.05;;;10.30;99.90;;;;;;5087270;28;20172;-81
2023/03/31 08:42:21;;;;;;;9.13;2.72;;;10.30;99.90;;;;;;5109293;28;20066;-82
2023/03/31 08:45:21;;;;;;;5.60;1.70;;;10.30;99.90;;;;;;5090289;28;20081;-84
2023/03/31 08:48:31;;;;;;;5.63;1.52;;;10.20;99.90;;;;;;5109245;28;20054;-81
2023/03/31 08:51:20;;;;;;;2.80;1.10;;;10.20;99.90;;;;;;5114394;28;20047;-85
2023/03/31 08:54:23;;;;;;;3.97;1.00;;;10.20;99.90;;;;;;5109042;28;20407;-84
2023/03/31 08:57:24;;;;;;;4.90;1.52;;;10.10;99.90;;;;;;5108828;28;20105;-86
2023/03/31 09:00:16;;;;;;;4.68;1.45;;;10.10;99.90;;;;;;5113138;28;20146;-84
2023/03/31 09:03:10;;;;;;;7.10;1.75;;;10.10;99.90;;;;;;5112092;28;20082;-81
2023/03/31 09:06:04;;;;;;;4.73;2.20;;;10.10;99.90;;;;;;5114355;28;20055;-85
2023/03/31 09:08:55;;;;;;;8.85;3.08;;;10.10;99.90;;;;;;5113484;28;20043;-80
2023/03/31 09:11:53;;;;;;;9.90;3.30;;;10.10;99.90;;;;;;5112674;28;20047;-82
2023/03/31 09:15:03;;;;;;;11.48;3.70;;;10.20;99.90;;;;;;5111915;28;20051;-85
2023/03/31 09:17:53;;;;;;;7.50;3.50;;;10.20;99.90;;;;;;5112310;28;20051;-84
2023/03/31 09:20:46;;;;;;;7.53;3.70;;;10.20;99.90;;;;;;5114810;28;20055;-83
2023/03/31 09:23:35;;;;;;;7.47;3.50;;;10.30;99.90;;;;;;5097434;28;20048;-84
2023/03/31 09:26:45;;;;;;;8.32;3.78;;;10.30;99.90;;;;;;5111628;28;20553;-83
2023/03/31 09:29:45;;;;;;;8.43;3.38;;;10.40;99.90;;;;;;5111933;28;20142;-86
2023/03/31 09:32:32;;;;;;;10.20;3.63;;;10.60;99.90;;;;;;5114533;28;20048;-86
2023/03/31 09:35:21;;;;;;;11.30;4.32;;;10.70;99.90;;;;;;5117849;28;20039;-85
2023/03/31 09:38:12;;;;;;;12.75;4.28;;;10.80;99.90;;;;;;5111101;28;20071;-84
2023/03/31 09:41:00;;;;;;;8.75;3.80;;;11.00;99.90;;;;;;5094310;28;20737;-84
2023/03/31 09:43:48;;;;;;;11.45;3.47;;;11.00;99.90;;;;;;5112001;28;20518;-84
2023/03/31 09:46:36;;;;;;;9.48;3.50;;;11.10;99.90;;;;;;5112430;28;20051;-84
2023/03/31 09:49:27;;;;;;;10.00;4.00;;;11.10;99.90;;;;;;5112991;28;20059;-84
2023/03/31 09:52:39;;;;;;;11.00;4.10;;;11.00;99.90;;;;;;5116746;28;20047;-83
2023/03/31 09:55:46;;;;;;;8.07;3.10;;;11.20;99.90;;;;;;5114352;28;20094;-85
2023/03/31 09:58:43;;;;;;;8.75;3.58;;;11.30;99.90;;;;;;5112117;28;20044;-78
2023/03/31 10:01:30;;;;;;;12.02;3.45;;;11.40;99.90;;;;;;5093755;28;20085;-84
2023/03/31 10:04:22;;;;;;;8.68;3.53;;;11.50;99.90;;;;;;5016695;28;20060;-83
